Startpagina
METAR-TAF:

METAR-TAF

Vliegvelden :

Cannes, Frankrijk

breedte: 43-33N, lengte: 006-57E, hoogte: 3 m

Actueel weer

Dit bericht is 20 uur en het 28 minuten geleden gemaakt, om 15:00 UTC
Wind 2 kt uit variabele richting
Temperatuur 11°C
Vochtigheid 50%
Druk 1006 hPa
Zicht 10 km of meer
Weinig wolken op 3900 ft
Gebroken wolken op 4900 ft
Geheel bewolkt op 6400 ft

METAR: LFMD 201500Z AUTO VRB02KT 9999 FEW039 BKN049 OVC064 11/01 Q1006 NOSIG

Tijdstip: 12:28 (11:28 UTC)

Verwachting

Dit bericht is 21 uur en het 28 minuten geleden gemaakt, om 14:00 UTC
Verwachting geldig van 20 om 15 UTC tot 21 om 15 UTC
Wind 6 kt uit het zuidzuidoosten
Zicht 10 km of meer
Verspreide wolken op 2500 ft
Gebroken wolken op 5000 ft
Wijzigt naar
van 20 om 17 UTC tot 20 om 19 UTC
Wind 6 kt uit het noordwesten
Wijzigt naar
van 21 om 09 UTC tot 21 om 11 UTC
Wind 10 kt uit het oostzuidoosten

TAF: LFMD 201400Z 2015/2115 15006KT 9999 SCT025 BKN050 BECMG 2017/2019 32006KT BECMG 2109/2111 11010KT

Waarnemingen en weersverwachtingen van meer dan 4000 vliegvelden (METAR en TAF).

De beschikbare stations zijn de gele en rode punten op de kaart.

Ga met uw muis naar het station om de naam te zien.

Klik dan om waarnemingen en weersverwachtingen te zien.

kaart wijzigen: klik op de groene knoppen met een zwart kruis om in te zoomen, op de groene knop met een streepje om uit te zoomen of op de groene pijlen voor aangrenzende kaarten.


METAR-TAF: